createdAt,value
2023-05-02T00:01:58.662Z,101745.47
2023-05-02T00:04:30.762Z,101766.63
2023-05-02T00:07:03.115Z,101773.50
2023-05-02T00:09:35.054Z,101781.28
2023-05-02T00:12:06.944Z,101774.97
2023-05-02T00:14:38.883Z,101786.47
2023-05-02T00:17:18.751Z,101789.13
2023-05-02T00:19:50.867Z,101792.59
2023-05-02T00:22:22.939Z,101795.28
2023-05-02T00:24:58.822Z,101795.88
2023-05-02T00:27:32.097Z,101799.31
2023-05-02T00:30:04.558Z,101803.00
2023-05-02T00:32:36.580Z,101801.13
2023-05-02T00:35:08.976Z,101804.50
2023-05-02T00:37:41.014Z,101810.94
2023-05-02T00:40:13.657Z,101814.56
2023-05-02T00:42:45.699Z,101788.53
2023-05-02T00:45:18.499Z,101808.44
2023-05-02T00:47:50.893Z,101805.91
2023-05-02T00:50:23.541Z,101803.16
2023-05-02T00:52:56.263Z,101806.63
2023-05-02T00:55:28.319Z,101777.63
2023-05-02T00:58:16.872Z,101825.78
2023-05-02T01:01:20.120Z,101819.19
2023-05-02T01:04:02.342Z,101818.25
2023-05-02T01:06:58.793Z,101815.56
2023-05-02T01:09:34.377Z,101813.91
2023-05-02T01:12:45.272Z,101815.50
2023-05-02T01:15:23.303Z,101819.09
2023-05-02T01:17:59.090Z,101814.63
2023-05-02T01:20:36.352Z,101807.31
2023-05-02T01:24:00.473Z,101810.84
2023-05-02T01:26:50.258Z,101820.91
2023-05-02T01:29:24.054Z,101820.19
2023-05-02T01:31:59.553Z,101816.56
2023-05-02T01:34:33.372Z,101777.84
2023-05-02T01:37:07.584Z,101777.03
2023-05-02T01:39:42.673Z,101816.75
2023-05-02T01:42:18.147Z,101813.91
2023-05-02T01:44:55.085Z,101822.69
2023-05-02T01:47:32.592Z,101817.38
2023-05-02T01:50:09.691Z,101831.50
2023-05-02T01:52:44.302Z,101789.97
2023-05-02T01:55:17.971Z,101788.22
2023-05-02T01:57:54.946Z,101824.19
2023-05-02T02:00:29.459Z,101832.13
2023-05-02T02:03:04.874Z,101840.84
2023-05-02T02:05:39.466Z,101800.13
2023-05-02T02:08:11.588Z,101848.41
2023-05-02T02:10:52.653Z,101850.06
2023-05-02T02:13:36.024Z,101812.16
2023-05-02T02:16:14.238Z,101863.41
2023-05-02T02:18:46.715Z,101862.34
2023-05-02T02:21:22.620Z,101855.06
2023-05-02T02:24:00.930Z,101825.06
2023-05-02T02:26:33.689Z,101863.69
2023-05-02T02:29:05.733Z,101863.69
2023-05-02T02:31:39.678Z,101865.50
2023-05-02T02:34:11.670Z,101867.28
2023-05-02T02:37:01.835Z,101858.81
2023-05-02T02:40:14.616Z,101881.47
2023-05-02T02:43:12.893Z,101879.66
2023-05-02T02:46:11.852Z,101881.34
2023-05-02T02:49:03.350Z,101832.72
2023-05-02T02:51:47.337Z,101889.41
2023-05-02T02:54:28.152Z,101850.38
2023-05-02T02:57:33.433Z,101892.03
2023-05-02T03:00:22.584Z,101893.59
2023-05-02T03:02:56.923Z,101900.81
2023-05-02T03:05:30.881Z,101900.56
2023-05-02T03:08:02.954Z,101907.91
2023-05-02T03:10:35.463Z,101902.72
2023-05-02T03:13:07.433Z,101913.41
2023-05-02T03:16:28.399Z,101913.22
2023-05-02T03:19:00.574Z,101922.44
2023-05-02T03:21:33.569Z,101924.22
2023-05-02T03:24:05.978Z,101924.22
2023-05-02T03:26:38.243Z,101919.03
2023-05-02T03:29:10.540Z,101921.69
2023-05-02T03:31:42.943Z,101883.03
2023-05-02T03:34:14.960Z,101929.63
2023-05-02T03:36:47.030Z,101924.41
2023-05-02T03:39:18.957Z,101931.06
2023-05-02T03:41:50.937Z,101929.03
2023-05-02T03:44:22.906Z,101921.22
2023-05-02T03:46:55.213Z,101942.47
2023-05-02T03:49:28.563Z,101931.06
2023-05-02T03:52:01.036Z,101923.97
2023-05-02T03:54:33.249Z,101930.25
2023-05-02T03:57:05.475Z,101898.53
2023-05-02T03:59:41.709Z,101946.03
2023-05-02T04:02:14.351Z,101909.00
2023-05-02T04:04:46.701Z,101940.53
2023-05-02T04:07:19.691Z,101957.50
2023-05-02T04:09:52.138Z,101960.97
2023-05-02T04:12:24.135Z,101968.00
2023-05-02T04:14:56.454Z,101926.47
2023-05-02T04:17:28.873Z,101970.47
2023-05-02T04:20:04.053Z,101974.16
2023-05-02T04:22:39.660Z,101973.47
2023-05-02T04:25:11.622Z,101987.75
2023-05-02T04:27:44.212Z,101991.31
2023-05-02T04:30:16.720Z,102002.53
2023-05-02T04:32:48.730Z,101988.22
2023-05-02T04:35:21.100Z,102001.44
2023-05-02T04:37:53.088Z,101999.13
2023-05-02T04:40:25.114Z,101973.63
2023-05-02T04:42:57.029Z,102015.84
2023-05-02T04:45:29.040Z,102019.78
2023-05-02T04:48:01.068Z,102028.13
2023-05-02T04:50:33.380Z,102020.91
2023-05-02T04:53:05.389Z,102031.69
2023-05-02T04:55:37.883Z,102036.63
2023-05-02T04:58:09.975Z,102039.97
2023-05-02T05:00:41.927Z,102054.00
2023-05-02T05:03:13.938Z,102052.34
2023-05-02T05:05:46.035Z,102055.13
2023-05-02T05:08:18.123Z,102051.56
2023-05-02T05:10:51.094Z,102017.91
2023-05-02T05:13:23.065Z,102060.41
2023-05-02T05:15:55.345Z,102026.94
2023-05-02T05:18:28.002Z,102062.03
2023-05-02T05:21:00.056Z,102070.97
2023-05-02T05:23:31.991Z,101995.25
2023-05-02T05:26:17.192Z,102080.66
2023-05-02T05:28:50.446Z,102084.28
2023-05-02T05:31:24.696Z,102071.66
2023-05-02T05:33:57.332Z,102081.56
2023-05-02T05:36:29.595Z,102091.22
2023-05-02T05:39:01.591Z,102093.16
2023-05-02T05:41:34.245Z,102055.69
2023-05-02T05:44:06.366Z,102088.19
2023-05-02T05:46:38.501Z,102090.03
2023-05-02T05:49:10.656Z,102097.31
2023-05-02T05:51:42.650Z,102091.00
2023-05-02T05:54:14.645Z,102100.09
2023-05-02T05:56:47.225Z,102103.03
2023-05-02T05:59:19.417Z,102100.81
2023-05-02T06:01:51.578Z,102103.91
2023-05-02T06:04:23.871Z,102109.59
2023-05-02T06:06:56.801Z,102110.25
2023-05-02T06:09:29.395Z,102110.66
2023-05-02T06:12:02.669Z,102123.59
2023-05-02T06:14:34.694Z,102116.81
2023-05-02T06:17:06.834Z,102123.63
2023-05-02T06:19:38.808Z,102126.75
2023-05-02T06:22:14.096Z,102080.16
2023-05-02T06:24:46.074Z,102132.66
2023-05-02T06:27:18.074Z,102132.09
2023-05-02T06:29:54.835Z,102140.56
2023-05-02T06:32:32.243Z,102148.03
2023-05-02T06:35:04.732Z,102148.09
2023-05-02T06:37:36.775Z,102154.63
2023-05-02T06:40:10.183Z,102111.69
2023-05-02T06:42:42.137Z,102166.50
2023-05-02T06:45:14.183Z,102164.81
2023-05-02T06:47:46.444Z,102175.28
2023-05-02T06:50:18.568Z,102140.94
2023-05-02T06:52:50.573Z,102177.41
2023-05-02T06:55:22.914Z,102173.22
2023-05-02T06:57:56.390Z,102181.16
2023-05-02T07:00:29.160Z,102185.03
2023-05-02T07:03:01.229Z,102188.53
2023-05-02T07:05:33.375Z,102189.97
2023-05-02T07:08:05.803Z,102188.38
2023-05-02T07:10:37.957Z,102201.31
2023-05-02T07:13:10.053Z,102204.81
2023-05-02T07:15:43.020Z,102204.28
2023-05-02T07:18:15.085Z,102212.25
2023-05-02T07:20:47.376Z,102212.25
2023-05-02T07:23:20.409Z,102213.56
2023-05-02T07:25:52.452Z,102222.28
2023-05-02T07:28:24.447Z,102227.22
2023-05-02T07:30:56.895Z,102190.56
2023-05-02T07:33:29.207Z,102231.84
2023-05-02T07:36:03.226Z,102237.81
2023-05-02T07:38:35.200Z,102233.16
2023-05-02T07:41:07.189Z,102236.84
2023-05-02T07:43:39.257Z,102234.84
2023-05-02T07:46:11.611Z,102240.28
2023-05-02T07:48:43.594Z,102199.88
2023-05-02T07:51:15.776Z,102240.75
2023-05-02T07:53:53.131Z,102239.69
2023-05-02T07:56:25.899Z,102249.00
2023-05-02T07:58:58.009Z,102246.69
2023-05-02T08:01:30.159Z,102249.06
2023-05-02T08:04:02.530Z,102252.56
2023-05-02T08:06:34.839Z,102249.84
2023-05-02T08:09:06.996Z,102229.47
2023-05-02T08:11:39.034Z,102266.63
2023-05-02T08:14:11.014Z,102267.28
2023-05-02T08:16:46.087Z,102269.63
2023-05-02T08:19:18.549Z,102282.81
2023-05-02T08:21:50.743Z,102274.59
2023-05-02T08:24:23.067Z,102225.34
2023-05-02T08:26:55.894Z,102290.97
2023-05-02T08:29:31.488Z,102288.41
2023-05-02T08:32:03.735Z,102296.09
2023-05-02T08:34:35.828Z,102268.41
2023-05-02T08:37:12.179Z,102302.03
2023-05-02T08:39:44.251Z,102302.19
2023-05-02T08:42:16.381Z,102299.22
2023-05-02T08:44:49.724Z,102305.03
2023-05-02T08:47:25.611Z,102300.22
2023-05-02T08:49:59.774Z,102302.38
2023-05-02T08:52:33.818Z,102308.59
2023-05-02T08:55:07.654Z,102309.09
2023-05-02T08:57:41.448Z,102307.41
2023-05-02T09:00:14.584Z,102307.69
2023-05-02T09:03:31.651Z,102278.81
2023-05-02T09:06:17.199Z,102325.09
2023-05-02T09:08:54.920Z,102285.72
2023-05-02T09:11:28.161Z,102281.84
2023-05-02T09:14:04.131Z,102282.38
2023-05-02T09:16:40.648Z,102331.09
2023-05-02T09:19:27.545Z,102328.47
2023-05-02T09:22:01.527Z,102328.78
2023-05-02T09:24:33.696Z,102323.66
2023-05-02T09:27:06.239Z,102302.19
2023-05-02T09:29:39.073Z,102312.22
2023-05-02T09:32:11.509Z,102303.84
2023-05-02T09:35:07.304Z,102296.88
2023-05-02T09:37:39.720Z,102334.38
2023-05-02T09:40:12.605Z,102297.44
2023-05-02T09:42:44.670Z,102332.53
2023-05-02T09:45:26.322Z,102343.13
2023-05-02T09:48:03.172Z,102353.16
2023-05-02T09:50:38.195Z,102355.19
2023-05-02T09:53:11.313Z,102357.88
2023-05-02T09:55:43.523Z,102362.66
2023-05-02T09:58:23.183Z,102363.31
2023-05-02T10:00:56.508Z,102322.41
2023-05-02T10:03:30.408Z,102360.25
2023-05-02T10:06:03.809Z,102363.00
2023-05-02T10:08:36.719Z,102362.91
2023-05-02T10:11:10.065Z,102362.00
2023-05-02T10:13:44.886Z,102352.19
2023-05-02T10:16:28.142Z,102369.81
2023-05-02T10:19:09.260Z,102363.44
2023-05-02T10:21:44.260Z,102369.09
2023-05-02T10:24:17.191Z,102329.22
2023-05-02T10:26:50.234Z,102362.38
2023-05-02T10:29:22.872Z,102327.53
2023-05-02T10:31:57.254Z,102312.25
2023-05-02T10:34:34.129Z,102358.56
2023-05-02T10:37:06.111Z,102324.97
2023-05-02T10:39:38.507Z,102321.84
2023-05-02T10:42:10.950Z,102362.88
2023-05-02T10:44:43.137Z,102368.81
2023-05-02T10:47:29.097Z,102373.53
2023-05-02T10:50:03.152Z,102373.84
2023-05-02T10:52:41.202Z,102371.47
2023-05-02T10:55:18.076Z,102369.59
2023-05-02T10:57:59.438Z,102376.06
2023-05-02T11:00:34.254Z,102360.38
2023-05-02T11:03:06.569Z,102378.09
2023-05-02T11:06:07.076Z,102378.69
2023-05-02T11:08:40.682Z,102373.31
2023-05-02T11:11:45.492Z,102389.31
2023-05-02T11:14:28.104Z,102385.22
2023-05-02T11:17:05.737Z,102383.69
2023-05-02T11:19:43.638Z,102382.00
2023-05-02T11:22:19.153Z,102375.78
2023-05-02T11:24:51.797Z,102384.44
2023-05-02T11:27:29.717Z,102379.28
2023-05-02T11:30:07.651Z,102378.25
2023-05-02T11:32:45.853Z,102380.72
2023-05-02T11:35:26.743Z,102375.13
2023-05-02T11:38:05.014Z,102371.25
2023-05-02T11:40:37.783Z,102309.63
2023-05-02T11:43:17.002Z,102364.22
2023-05-02T11:45:49.479Z,102372.09
2023-05-02T11:48:24.177Z,102363.47
2023-05-02T11:51:03.612Z,102372.38
2023-05-02T11:53:41.566Z,102372.25
2023-05-02T11:56:13.821Z,102367.78
2023-05-02T11:58:47.063Z,102380.19
2023-05-02T12:01:19.111Z,102380.94
2023-05-02T12:04:02.056Z,102380.53
2023-05-02T12:06:34.712Z,102383.75
2023-05-02T12:09:17.235Z,102340.81
2023-05-02T12:11:53.976Z,102386.59
2023-05-02T12:14:33.624Z,102368.72
2023-05-02T12:17:06.856Z,102380.28
2023-05-02T12:19:39.203Z,102396.34
2023-05-02T12:22:13.522Z,102399.66
2023-05-02T12:24:46.290Z,102404.97
2023-05-02T12:27:18.285Z,102393.09
2023-05-02T12:29:51.529Z,102399.63
2023-05-02T12:32:32.788Z,102367.38
2023-05-02T12:35:05.715Z,102409.16
2023-05-02T12:37:37.810Z,102409.00
2023-05-02T12:40:19.414Z,102411.69
2023-05-02T12:43:04.281Z,102426.06
2023-05-02T12:45:37.436Z,102386.94
2023-05-02T12:48:18.702Z,102423.22
2023-05-02T12:50:51.320Z,102428.63
2023-05-02T12:53:45.952Z,102394.47
2023-05-02T12:56:18.106Z,102415.72
2023-05-02T12:58:51.173Z,102409.59
2023-05-02T13:01:23.254Z,102424.06
2023-05-02T13:03:55.901Z,102433.28
2023-05-02T13:06:28.705Z,102429.22
2023-05-02T13:09:01.036Z,102416.16
2023-05-02T13:11:33.152Z,102426.88
2023-05-02T13:14:06.006Z,102429.97
2023-05-02T13:16:38.207Z,102425.25
2023-05-02T13:19:10.531Z,102398.28
2023-05-02T13:21:42.474Z,102428.97
2023-05-02T13:24:15.125Z,102393.22
2023-05-02T13:26:47.161Z,102421.06
2023-05-02T13:29:19.272Z,102422.06
2023-05-02T13:31:51.236Z,102420.25
2023-05-02T13:34:23.245Z,102428.22
2023-05-02T13:36:56.497Z,102393.63
2023-05-02T13:39:29.628Z,102416.53
2023-05-02T13:42:06.170Z,102421.22
2023-05-02T13:44:38.468Z,102431.00
2023-05-02T13:47:10.583Z,102421.59
2023-05-02T13:49:42.883Z,102395.75
2023-05-02T13:52:14.982Z,102424.94
2023-05-02T13:54:47.001Z,102421.31
2023-05-02T13:57:19.100Z,102428.31
2023-05-02T13:59:51.610Z,102403.97
2023-05-02T14:02:23.705Z,102429.59
2023-05-02T14:04:56.453Z,102433.88
2023-05-02T14:07:28.824Z,102431.81
2023-05-02T14:10:01.129Z,102428.50
2023-05-02T14:12:33.455Z,102390.78
2023-05-02T14:15:06.675Z,102418.28
2023-05-02T14:17:38.757Z,102430.84
2023-05-02T14:20:11.352Z,102421.03
2023-05-02T14:22:43.250Z,102413.84
2023-05-02T14:25:15.912Z,102423.59
2023-05-02T14:27:47.893Z,102414.91
2023-05-02T14:30:20.170Z,102408.75
2023-05-02T14:32:52.399Z,102417.09
2023-05-02T14:35:24.807Z,102414.41
2023-05-02T14:37:56.848Z,102418.03
2023-05-02T14:40:28.818Z,102417.19
2023-05-02T14:43:01.765Z,102403.00
2023-05-02T14:45:33.915Z,102418.78
2023-05-02T14:48:06.926Z,102408.84
2023-05-02T14:50:39.789Z,102408.75
2023-05-02T14:53:12.138Z,102405.19
2023-05-02T14:55:44.350Z,102394.41
2023-05-02T14:58:20.778Z,102358.88
2023-05-02T15:00:53.182Z,102408.44
2023-05-02T15:03:25.464Z,102364.13
2023-05-02T15:05:57.635Z,102416.44
2023-05-02T15:08:29.608Z,102412.38
2023-05-02T15:11:01.580Z,102408.75
2023-05-02T15:13:33.587Z,102416.06
2023-05-02T15:16:06.498Z,102409.81
2023-05-02T15:18:38.992Z,102415.94
2023-05-02T15:21:11.347Z,102405.41
2023-05-02T15:23:44.179Z,102414.78
2023-05-02T15:26:16.471Z,102407.28
2023-05-02T15:28:48.958Z,102373.56
2023-05-02T15:31:21.194Z,102407.84
2023-05-02T15:33:53.415Z,102369.81
2023-05-02T15:36:32.584Z,102422.88
2023-05-02T15:39:06.897Z,102410.09
2023-05-02T15:41:39.206Z,102413.81
2023-05-02T15:44:11.561Z,102419.31
2023-05-02T15:46:46.899Z,102408.03
2023-05-02T15:49:19.312Z,102369.16
2023-05-02T15:51:51.343Z,102420.47
2023-05-02T15:54:23.352Z,102377.06
2023-05-02T15:56:56.001Z,102386.06
2023-05-02T15:59:28.887Z,102385.03
2023-05-02T16:02:00.990Z,102430.88
2023-05-02T16:04:34.919Z,102423.72
2023-05-02T16:07:07.103Z,102428.28
2023-05-02T16:09:39.838Z,102392.97
2023-05-02T16:12:11.982Z,102431.59
2023-05-02T16:14:45.058Z,102406.19
2023-05-02T16:17:17.102Z,102443.69
2023-05-02T16:19:49.023Z,102439.72
2023-05-02T16:22:21.028Z,102441.34
2023-05-02T16:24:53.005Z,102435.06
2023-05-02T16:27:24.999Z,102432.34
2023-05-02T16:29:57.435Z,102434.88
2023-05-02T16:32:29.464Z,102433.91
2023-05-02T16:35:01.506Z,102434.81
2023-05-02T16:37:36.623Z,102448.00
2023-05-02T16:40:10.814Z,102443.59
2023-05-02T16:42:42.851Z,102444.41
2023-05-02T16:45:15.419Z,102419.69
2023-05-02T16:47:47.593Z,102415.06
2023-05-02T16:50:19.979Z,102419.31
2023-05-02T16:52:52.012Z,102437.38
2023-05-02T16:55:23.990Z,102454.94
2023-05-02T16:57:56.541Z,102443.16
2023-05-02T17:00:28.529Z,102462.66
2023-05-02T17:03:03.712Z,102448.38
2023-05-02T17:05:37.332Z,102411.38
2023-05-02T17:08:10.505Z,102459.19
2023-05-02T17:10:43.118Z,102453.41
2023-05-02T17:13:15.156Z,102461.19
2023-05-02T17:15:47.311Z,102439.56
2023-05-02T17:18:19.425Z,102461.78
2023-05-02T17:20:51.499Z,102467.88
2023-05-02T17:23:24.016Z,102463.38
2023-05-02T17:25:56.650Z,102464.03
2023-05-02T17:28:28.667Z,102470.28
2023-05-02T17:31:03.253Z,102465.94
2023-05-02T17:33:35.473Z,102464.13
2023-05-02T17:36:09.125Z,102463.16
2023-05-02T17:38:41.881Z,102464.84
2023-05-02T17:41:15.117Z,102460.38
2023-05-02T17:43:48.728Z,102464.66
2023-05-02T17:46:20.896Z,102452.09
2023-05-02T17:48:52.939Z,102457.16
2023-05-02T17:51:24.980Z,102468.47
2023-05-02T17:53:57.373Z,102470.97
2023-05-02T17:56:30.080Z,102430.88
2023-05-02T17:59:02.245Z,102472.13
2023-05-02T18:01:34.241Z,102430.19
2023-05-02T18:04:06.370Z,102483.47
2023-05-02T18:06:39.881Z,102483.38
2023-05-02T18:09:12.380Z,102494.91
2023-05-02T18:11:44.359Z,102490.22
2023-05-02T18:14:16.351Z,102487.47
2023-05-02T18:16:48.836Z,102485.41
2023-05-02T18:19:22.075Z,102447.09
2023-05-02T18:21:54.756Z,102449.44
2023-05-02T18:24:26.996Z,102453.72
2023-05-02T18:26:59.246Z,102489.44
2023-05-02T18:29:31.352Z,102498.19
2023-05-02T18:32:03.362Z,102502.38
2023-05-02T18:34:38.462Z,102458.09
2023-05-02T18:37:11.759Z,102502.00
2023-05-02T18:39:43.722Z,102507.16
2023-05-02T18:42:15.738Z,102506.91
2023-05-02T18:44:48.172Z,102502.25
2023-05-02T18:47:21.517Z,102499.28
2023-05-02T18:49:56.530Z,102512.25
2023-05-02T18:52:30.980Z,102467.78
2023-05-02T18:55:03.608Z,102514.63
2023-05-02T18:57:35.996Z,102523.16
2023-05-02T19:00:09.771Z,102513.22
2023-05-02T19:02:41.798Z,102529.94
2023-05-02T19:05:13.885Z,102530.72
2023-05-02T19:07:45.840Z,102527.13
2023-05-02T19:10:17.808Z,102524.25
2023-05-02T19:12:49.735Z,102532.06
2023-05-02T19:15:23.836Z,102527.34
2023-05-02T19:17:56.540Z,102535.88
2023-05-02T19:20:30.173Z,102539.28
2023-05-02T19:23:18.139Z,102545.19
2023-05-02T19:25:51.624Z,102499.69
2023-05-02T19:28:23.820Z,102548.19
2023-05-02T19:30:56.165Z,102541.72
2023-05-02T19:33:28.680Z,102551.25
2023-05-02T19:36:00.859Z,102548.25
2023-05-02T19:38:33.908Z,102547.06
2023-05-02T19:41:08.849Z,102555.72
2023-05-02T19:43:40.932Z,102508.47
2023-05-02T19:46:14.945Z,102558.06
2023-05-02T19:48:47.166Z,102551.72
2023-05-02T19:51:25.674Z,102554.25
2023-05-02T19:53:58.923Z,102541.56
2023-05-02T19:56:31.039Z,102553.75
2023-05-02T19:59:03.332Z,102562.34
2023-05-02T20:01:35.773Z,102566.38
2023-05-02T20:04:08.921Z,102501.63
2023-05-02T20:06:41.101Z,102574.97
2023-05-02T20:09:13.391Z,102545.56
2023-05-02T20:11:45.343Z,102577.34
2023-05-02T20:14:18.857Z,102586.19
2023-05-02T20:16:51.215Z,102588.44
2023-05-02T20:19:24.106Z,102592.63
2023-05-02T20:21:56.494Z,102595.13
2023-05-02T20:24:28.490Z,102594.78
2023-05-02T20:27:00.480Z,102606.88
2023-05-02T20:29:32.781Z,102607.72
2023-05-02T20:32:05.373Z,102590.78
2023-05-02T20:34:39.207Z,102563.09
2023-05-02T20:37:13.651Z,102602.00
2023-05-02T20:39:45.830Z,102603.56
2023-05-02T20:42:27.030Z,102602.31
2023-05-02T20:45:05.409Z,102613.53
2023-05-02T20:47:37.577Z,102612.38
2023-05-02T20:50:10.833Z,102586.38
2023-05-02T20:52:43.414Z,102593.16
2023-05-02T20:55:15.609Z,102592.16
2023-05-02T20:57:53.321Z,102585.59
2023-05-02T21:00:25.854Z,102627.88
2023-05-02T21:02:57.876Z,102618.88
2023-05-02T21:05:29.855Z,102623.09
2023-05-02T21:08:02.002Z,102626.63
2023-05-02T21:10:34.038Z,102620.97
2023-05-02T21:13:06.007Z,102596.50
2023-05-02T21:15:39.359Z,102638.56
2023-05-02T21:18:11.946Z,102620.41
2023-05-02T21:20:44.374Z,102637.13
2023-05-02T21:23:16.458Z,102629.91
2023-05-02T21:25:48.421Z,102633.19
2023-05-02T21:28:20.584Z,102614.47
2023-05-02T21:30:52.785Z,102603.41
2023-05-02T21:33:25.061Z,102643.06
2023-05-02T21:35:58.444Z,102603.66
2023-05-02T21:38:30.698Z,102624.25
2023-05-02T21:41:06.733Z,102645.63
2023-05-02T21:43:40.843Z,102642.59
2023-05-02T21:46:13.375Z,102642.41
2023-05-02T21:48:45.557Z,102638.81
2023-05-02T21:51:17.737Z,102627.00
2023-05-02T21:53:49.744Z,102634.00
2023-05-02T21:56:21.692Z,102635.63
2023-05-02T21:58:53.657Z,102631.03
2023-05-02T22:01:25.773Z,102638.09
2023-05-02T22:03:58.270Z,102634.31
2023-05-02T22:06:30.377Z,102627.22
2023-05-02T22:09:02.456Z,102630.66
2023-05-02T22:11:34.529Z,102588.75
2023-05-02T22:14:06.788Z,102627.53
2023-05-02T22:16:40.127Z,102630.91
2023-05-02T22:19:14.650Z,102638.53
2023-05-02T22:21:47.096Z,102587.84
2023-05-02T22:24:19.255Z,102633.09
2023-05-02T22:26:51.258Z,102583.97
2023-05-02T22:29:23.534Z,102631.72
2023-05-02T22:31:55.908Z,102589.16
2023-05-02T22:34:27.926Z,102624.50
2023-05-02T22:36:59.900Z,102626.94
2023-05-02T22:39:31.868Z,102626.50
2023-05-02T22:42:04.543Z,102584.28
2023-05-02T22:44:50.558Z,102625.88
2023-05-02T22:47:26.906Z,102627.31
2023-05-02T22:49:59.684Z,102586.38
2023-05-02T22:52:38.125Z,102628.97
2023-05-02T22:55:10.582Z,102626.78
2023-05-02T22:57:42.871Z,102597.34
2023-05-02T23:00:15.532Z,102626.63
2023-05-02T23:02:47.573Z,102621.25
2023-05-02T23:05:19.737Z,102621.88
2023-05-02T23:07:51.825Z,102627.69
2023-05-02T23:10:23.997Z,102630.06
2023-05-02T23:12:56.475Z,102625.34
2023-05-02T23:15:28.419Z,102634.97
2023-05-02T23:18:01.135Z,102636.59
2023-05-02T23:20:36.461Z,102635.41
2023-05-02T23:23:09.699Z,102630.53
2023-05-02T23:25:41.917Z,102638.25
2023-05-02T23:28:13.908Z,102626.63
2023-05-02T23:30:46.221Z,102635.06
2023-05-02T23:33:18.505Z,102629.81
2023-05-02T23:35:51.616Z,102634.59
2023-05-02T23:38:24.707Z,102623.59
2023-05-02T23:40:57.178Z,102640.47
2023-05-02T23:43:30.066Z,102638.47
2023-05-02T23:46:02.548Z,102645.19
2023-05-02T23:48:34.574Z,102594.09
2023-05-02T23:51:06.524Z,102639.56
2023-05-02T23:53:38.528Z,102635.53
2023-05-02T23:56:10.562Z,102640.88
2023-05-02T23:58:42.551Z,102649.47
